Weather at Roswell Air Center Airport

Public forecast

Using degrees Fahrenheit for public forecast. Weather courtesy of forecast.io.

Current aviation weather report (METAR) for Roswell Air Center Airport

Retrieved 2021/10/16 05:51 UTC (23 minutes ago):

KROW 160551Z AUTO 22004KT 10SM CLR 08/M04 A3037 RMK AO2 SLP254 T00831039 10194 20083 51015

Aviation forecast (TAF) for Roswell Air Center Airport

Retrieved 2021/10/16 06:45 UTC (0 seconds ago):

TAF KROW 160542Z 1606/1706 VRB06KT P6SM SKC FM161700 16010KT P6SM SKC FM162100 17012G18KT P6SM SKC FM170100 21007KT P6SM SKC